Main page
METAR-TAF:

METAR-TAF

Airports :

San Sebastián Airport

San Sebastián, Spain

latitude: 43-21N, longitude: 001-48W, elevation: 5 m

Current weather observation

The report was made 23 minutes ago, at 20:00 UTC
Wind 8 kt from the East/Northeast
Temperature 5°C
Humidity 70%
Pressure 1034 hPa
Visibility 10 km or more
Few clouds at a height of 3000 ft
Broken clouds at a height of 4100 ft

METAR: LESO 212000Z 06008KT 9999 FEW030 BKN041 05/M00 Q1034

Time: 21:23 (20:23 UTC)

Forecast

The report was made 3 hours and 23 minutes ago, at 17:00 UTC
Forecast valid from 21 at 18 UTC to 22 at 18 UTC
Wind 5 kt from the Northeast
Visibility 10 km or more
Scattered clouds at a height of 5000 ft
Probability 30% :
Temporary
from 22 at 03 UTC to 22 at 08 UTC
Visibility: 3000 m
mist

TAF: LESO 211700Z 2118/2218 05005KT 9999 SCT050 TX06/2214Z TNM00/2206Z PROB30 TEMPO 2203/2208 3000 BR

Weather observations and forecasts of more than 4000 airports (METAR and TAF reports).

The available stations are represented by yellow and red dots on the map.

Hover mouse over dot to see the name of the station.

Then click to see weather observations and forecasts.

To change the map : click on the green buttons with a black cross to zoom in, on the green button with a dash to zoom out, or on the green arrows for adjacent maps.


METAR-TAF: